Time;durP1;ratioP1;P1;durP2;ratioP2;P2;SDS_P1;SDS_P2;PMS_P1;PMS_P2;Temp;Humidity;BMP_temperature;BMP_pressure;BME280_temperature;BME280_humidity;BME280_pressure;Samples;Min_cycle;Max_cycle;Signal;HPM_P1;HPM_P2
2023/01/06 00:02:37;;;;;;;;;;;;;;;;;;5009322;28;19932;-85
2023/01/06 00:05:24;;;;;;;;;;;;;;;;;;5009234;28;19924;-85
2023/01/06 00:08:10;;;;;;;;;;;;;;;;;;5009863;28;19913;-83
2023/01/06 00:10:57;;;;;;;;;;;;;;;;;;5009080;28;19921;-83
2023/01/06 00:13:43;;;;;;;;;;;;;;;;;;5001433;28;19917;-82
2023/01/06 00:16:30;;;;;;;;;;;;;;;;;;5008596;28;20306;-83
2023/01/06 00:19:16;;;;;;;;;;;;;;;;;;5007332;28;19917;-83
2023/01/06 00:22:04;;;;;;;;;;;;;;;;;;5008568;28;19926;-82
2023/01/06 00:24:51;;;;;;;;;;;;;;;;;;5009467;28;19913;-81
2023/01/06 00:27:37;;;;;;;;;;;;;;;;;;5006827;28;20355;-82
2023/01/06 00:30:24;;;;;;;;;;;;;;;;;;5007478;28;19948;-82
2023/01/06 00:33:10;;;;;;;;;;;;;;;;;;4998714;28;20529;-82
2023/01/06 00:35:57;;;;;;;;;;;;;;;;;;5002874;28;20588;-83
2023/01/06 00:38:43;;;;;;;;;;;;;;;;;;5015640;28;19922;-82
2023/01/06 00:44:35;;;;;;;;;;;;;;;;;;5019794;28;20361;-82
2023/01/06 00:47:21;;;;;;;;;;;;;;;;;;5012621;28;19913;-81
2023/01/06 00:50:08;;;;;;;;;;;;;;;;;;5010136;28;19920;-81
2023/01/06 00:52:54;;;;;;;;;;;;;;;;;;5004722;28;20294;-84
2023/01/06 00:55:41;;;;;;;;;;;;;;;;;;5009930;28;19924;-83
2023/01/06 00:58:27;;;;;;;;;;;;;;;;;;5005615;28;20384;-84
2023/01/06 01:01:14;;;;;;;;;;;;;;;;;;5009255;28;19925;-83
2023/01/06 01:04:00;;;;;;;;;;;;;;;;;;5014380;28;19918;-84
2023/01/06 01:06:47;;;;;;;;;;;;;;;;;;5003773;28;19920;-84
2023/01/06 01:09:34;;;;;;;;;;;;;;;;;;5008706;28;20020;-83
2023/01/06 01:12:20;;;;;;;;;;;;;;;;;;4989411;28;19913;-83
2023/01/06 01:15:06;;;;;;;;;;;;;;;;;;5002952;28;19995;-83
2023/01/06 01:17:53;;;;;;;;;;;;;;;;;;5005849;28;19939;-82
2023/01/06 01:20:39;;;;;;;;;;;;;;;;;;5009291;28;19933;-81
2023/01/06 01:23:26;;;;;;;;;;;;;;;;;;5004156;28;20308;-82
2023/01/06 01:26:12;;;;;;;;;;;;;;;;;;5001643;28;19917;-82
2023/01/06 01:28:59;;;;;;;;;;;;;;;;;;5007274;28;19909;-82
2023/01/06 01:31:45;;;;;;;;;;;;;;;;;;5001080;28;19929;-83
2023/01/06 01:34:32;;;;;;;;;;;;;;;;;;5003977;28;19961;-86
2023/01/06 01:37:18;;;;;;;;;;;;;;;;;;4990361;28;19914;-85
2023/01/06 01:40:05;;;;;;;;;;;;;;;;;;5008744;28;19913;-85
2023/01/06 01:42:51;;;;;;;;;;;;;;;;;;5006848;28;19943;-82
2023/01/06 01:45:40;;;;;;;;;;;;;;;;;;5004895;28;20388;-83
2023/01/06 01:48:26;;;;;;;;;;;;;;;;;;5008022;28;19920;-83
2023/01/06 01:51:13;;;;;;;;;;;;;;;;;;5003517;28;19936;-86
2023/01/06 01:53:59;;;;;;;;;;;;;;;;;;5005864;28;19909;-84
2023/01/06 01:56:46;;;;;;;;;;;;;;;;;;5006337;28;20418;-83
2023/01/06 01:59:32;;;;;;;;;;;;;;;;;;5001851;28;19917;-83
2023/01/06 02:02:19;;;;;;;;;;;;;;;;;;5003105;28;19919;-84
2023/01/06 02:05:05;;;;;;;;;;;;;;;;;;5003450;28;19914;-82
2023/01/06 02:07:52;;;;;;;;;;;;;;;;;;5006358;28;19913;-84
2023/01/06 02:10:39;;;;;;;;;;;;;;;;;;5002371;28;19913;-83
2023/01/06 02:13:25;;;;;;;;;;;;;;;;;;5007057;28;19915;-83
2023/01/06 02:16:12;;;;;;;;;;;;;;;;;;5002751;28;19914;-82
2023/01/06 02:18:58;;;;;;;;;;;;;;;;;;5003669;28;19913;-81
2023/01/06 02:21:45;;;;;;;;;;;;;;;;;;5005251;28;19922;-81
2023/01/06 02:24:31;;;;;;;;;;;;;;;;;;4992674;28;20368;-81
2023/01/06 02:27:18;;;;;;;;;;;;;;;;;;5007324;28;19917;-81
2023/01/06 02:30:04;;;;;;;;;;;;;;;;;;4988378;28;19925;-82
2023/01/06 02:32:51;;;;;;;;;;;;;;;;;;5001064;28;19913;-82
2023/01/06 02:35:37;;;;;;;;;;;;;;;;;;5000996;28;19914;-82
2023/01/06 02:38:25;;;;;;;;;;;;;;;;;;5001325;28;19917;-81
2023/01/06 02:41:12;;;;;;;;;;;;;;;;;;5005022;28;19932;-82
2023/01/06 02:43:58;;;;;;;;;;;;;;;;;;5005918;28;19913;-82
2023/01/06 02:46:45;;;;;;;;;;;;;;;;;;5000178;28;19920;-82
2023/01/06 02:49:31;;;;;;;;;;;;;;;;;;5006700;28;19917;-81
2023/01/06 02:52:18;;;;;;;;;;;;;;;;;;5002153;28;20292;-80
2023/01/06 02:55:04;;;;;;;;;;;;;;;;;;4999311;28;19917;-80
2023/01/06 02:57:51;;;;;;;;;;;;;;;;;;5009061;28;20368;-81
2023/01/06 03:00:37;;;;;;;;;;;;;;;;;;4990818;28;19919;-81
2023/01/06 03:03:24;;;;;;;;;;;;;;;;;;5005200;28;19929;-81
2023/01/06 03:06:10;;;;;;;;;;;;;;;;;;5009402;28;19910;-81
2023/01/06 03:08:57;;;;;;;;;;;;;;;;;;5006475;28;19913;-81
2023/01/06 03:11:43;;;;;;;;;;;;;;;;;;5001709;28;20663;-80
2023/01/06 03:14:30;;;;;;;;;;;;;;;;;;5004885;28;19917;-82
2023/01/06 03:17:16;;;;;;;;;;;;;;;;;;5003735;28;19920;-81
2023/01/06 03:20:03;;;;;;;;;;;;;;;;;;5012196;28;19909;-81
2023/01/06 03:22:49;;;;;;;;;;;;;;;;;;5015556;28;19937;-81
2023/01/06 03:25:36;;;;;;;;;;;;;;;;;;5011271;28;19914;-81
2023/01/06 03:28:22;;;;;;;;;;;;;;;;;;5012007;28;20400;-81
2023/01/06 03:31:09;;;;;;;;;;;;;;;;;;5004301;28;19917;-81
2023/01/06 03:33:55;;;;;;;;;;;;;;;;;;5000593;28;19913;-81
2023/01/06 03:36:41;;;;;;;;;;;;;;;;;;5009523;28;20571;-81
2023/01/06 03:39:28;;;;;;;;;;;;;;;;;;4998768;28;19920;-84
2023/01/06 03:45:20;;;;;;;;;;;;;;;;;;5006700;28;19919;-81
2023/01/06 03:48:06;;;;;;;;;;;;;;;;;;5011096;28;20382;-81
2023/01/06 03:50:53;;;;;;;;;;;;;;;;;;5010036;28;19910;-81
2023/01/06 03:53:39;;;;;;;;;;;;;;;;;;5010847;28;20292;-81
2023/01/06 03:56:26;;;;;;;;;;;;;;;;;;5010698;28;19913;-81
2023/01/06 03:59:12;;;;;;;;;;;;;;;;;;5011992;28;19913;-79
2023/01/06 04:01:59;;;;;;;;;;;;;;;;;;5008338;28;19922;-80
2023/01/06 04:04:45;;;;;;;;;;;;;;;;;;5000767;28;19917;-79
2023/01/06 04:07:31;;;;;;;;;;;;;;;;;;4998932;28;19917;-81
2023/01/06 04:10:18;;;;;;;;;;;;;;;;;;5003909;28;19910;-81
2023/01/06 04:13:04;;;;;;;;;;;;;;;;;;4985495;28;20233;-81
2023/01/06 04:15:51;;;;;;;;;;;;;;;;;;5005074;28;19924;-81
2023/01/06 04:18:37;;;;;;;;;;;;;;;;;;5004488;28;19913;-81
2023/01/06 04:21:24;;;;;;;;;;;;;;;;;;5001529;28;20391;-84
2023/01/06 04:24:10;;;;;;;;;;;;;;;;;;5000514;28;19947;-81
2023/01/06 04:26:57;;;;;;;;;;;;;;;;;;4989253;28;19914;-83
2023/01/06 04:29:43;;;;;;;;;;;;;;;;;;5004090;28;19917;-83
2023/01/06 04:32:30;;;;;;;;;;;;;;;;;;5006792;28;19919;-81
2023/01/06 04:35:16;;;;;;;;;;;;;;;;;;5003545;28;19915;-80
2023/01/06 04:38:03;;;;;;;;;;;;;;;;;;5009604;28;19918;-81
2023/01/06 04:40:49;;;;;;;;;;;;;;;;;;5007962;28;19920;-80
2023/01/06 04:43:36;;;;;;;;;;;;;;;;;;5005348;28;19917;-81
2023/01/06 04:46:22;;;;;;;;;;;;;;;;;;5011778;28;19924;-83
2023/01/06 04:49:09;;;;;;;;;;;;;;;;;;5004450;28;19922;-81
2023/01/06 04:51:55;;;;;;;;;;;;;;;;;;5011734;28;19926;-80
2023/01/06 04:54:41;;;;;;;;;;;;;;;;;;5002744;28;19913;-80
2023/01/06 04:57:28;;;;;;;;;;;;;;;;;;5015474;28;20427;-80
2023/01/06 05:00:14;;;;;;;;;;;;;;;;;;5001622;28;19916;-81
2023/01/06 05:03:04;;;;;;;;;;;;;;;;;;5009143;28;19929;-79
2023/01/06 05:05:50;;;;;;;;;;;;;;;;;;5007513;28;19910;-79
2023/01/06 05:08:37;;;;;;;;;;;;;;;;;;4997060;28;20575;-79
2023/01/06 05:11:23;;;;;;;;;;;;;;;;;;5013159;28;20373;-79
2023/01/06 05:14:10;;;;;;;;;;;;;;;;;;5008993;28;20293;-79
2023/01/06 05:16:56;;;;;;;;;;;;;;;;;;5008416;28;19913;-81
2023/01/06 05:19:44;;;;;;;;;;;;;;;;;;5005563;28;20298;-82
2023/01/06 05:22:30;;;;;;;;;;;;;;;;;;5011212;28;19933;-81
2023/01/06 05:25:17;;;;;;;;;;;;;;;;;;5008903;28;19923;-80
2023/01/06 05:28:03;;;;;;;;;;;;;;;;;;5008530;28;19914;-79
2023/01/06 05:30:50;;;;;;;;;;;;;;;;;;5006206;28;19920;-78
2023/01/06 05:33:36;;;;;;;;;;;;;;;;;;5008328;28;19920;-80
2023/01/06 05:36:23;;;;;;;;;;;;;;;;;;5007086;28;19924;-83
2023/01/06 05:39:09;;;;;;;;;;;;;;;;;;5008859;28;19913;-82
2023/01/06 05:41:56;;;;;;;;;;;;;;;;;;5009050;28;19996;-82
2023/01/06 05:44:42;;;;;;;;;;;;;;;;;;5006687;28;19913;-81
2023/01/06 05:47:29;;;;;;;;;;;;;;;;;;5006171;28;19916;-81
2023/01/06 05:50:15;;;;;;;;;;;;;;;;;;5008608;28;19925;-83
2023/01/06 05:53:02;;;;;;;;;;;;;;;;;;5004161;28;19925;-82
2023/01/06 05:55:48;;;;;;;;;;;;;;;;;;4993423;28;19910;-82
2023/01/06 05:58:35;;;;;;;;;;;;;;;;;;5008472;28;19917;-82
2023/01/06 06:01:22;;;;;;;;;;;;;;;;;;4997456;28;20455;-83
2023/01/06 06:04:08;;;;;;;;;;;;;;;;;;4999111;28;19909;-83
2023/01/06 06:06:54;;;;;;;;;;;;;;;;;;5003203;28;19972;-82
2023/01/06 06:09:41;;;;;;;;;;;;;;;;;;5003491;28;19917;-82
2023/01/06 06:12:27;;;;;;;;;;;;;;;;;;5005757;28;19924;-83
2023/01/06 06:15:14;;;;;;;;;;;;;;;;;;5005401;28;19917;-82
2023/01/06 06:18:00;;;;;;;;;;;;;;;;;;5003653;28;20403;-84
2023/01/06 06:20:47;;;;;;;;;;;;;;;;;;5005453;28;19924;-83
2023/01/06 06:23:33;;;;;;;;;;;;;;;;;;5000966;28;19918;-82
2023/01/06 06:26:20;;;;;;;;;;;;;;;;;;5015062;28;20386;-85
2023/01/06 06:29:06;;;;;;;;;;;;;;;;;;5016699;28;19918;-82
2023/01/06 06:31:53;;;;;;;;;;;;;;;;;;5000147;28;19917;-82
2023/01/06 06:34:39;;;;;;;;;;;;;;;;;;4988021;28;19917;-81
2023/01/06 06:37:26;;;;;;;;;;;;;;;;;;5003299;28;19917;-81
2023/01/06 06:40:12;;;;;;;;;;;;;;;;;;5007121;28;19972;-83
2023/01/06 06:42:59;;;;;;;;;;;;;;;;;;5000129;28;19917;-82
2023/01/06 06:45:45;;;;;;;;;;;;;;;;;;5006281;28;20359;-82
2023/01/06 06:48:32;;;;;;;;;;;;;;;;;;5010914;28;19914;-82
2023/01/06 06:51:18;;;;;;;;;;;;;;;;;;5009464;28;20086;-80
2023/01/06 06:54:05;;;;;;;;;;;;;;;;;;5008840;28;20289;-82
2023/01/06 06:56:51;;;;;;;;;;;;;;;;;;4996084;28;19920;-83
2023/01/06 06:59:38;;;;;;;;;;;;;;;;;;5013345;28;20391;-81
2023/01/06 07:02:24;;;;;;;;;;;;;;;;;;5006901;28;19925;-81
2023/01/06 07:05:11;;;;;;;;;;;;;;;;;;5010022;28;19936;-82
2023/01/06 07:07:57;;;;;;;;;;;;;;;;;;5008811;28;19925;-81
2023/01/06 07:10:44;;;;;;;;;;;;;;;;;;4995326;28;19913;-80
2023/01/06 07:13:30;;;;;;;;;;;;;;;;;;5010809;28;19909;-81
2023/01/06 07:16:18;;;;;;;;;;;;;;;;;;5006692;28;19993;-81
2023/01/06 07:19:05;;;;;;;;;;;;;;;;;;5010708;28;19909;-81
2023/01/06 07:21:51;;;;;;;;;;;;;;;;;;5018798;28;19943;-80
2023/01/06 07:24:38;;;;;;;;;;;;;;;;;;5010910;28;19913;-81
2023/01/06 07:27:24;;;;;;;;;;;;;;;;;;5012249;28;19918;-81
2023/01/06 07:30:11;;;;;;;;;;;;;;;;;;5008307;28;19916;-81
2023/01/06 07:32:57;;;;;;;;;;;;;;;;;;5011792;28;19924;-81
2023/01/06 07:35:44;;;;;;;;;;;;;;;;;;5019036;28;19947;-81
2023/01/06 07:38:30;;;;;;;;;;;;;;;;;;5013174;28;20473;-80
2023/01/06 07:41:17;;;;;;;;;;;;;;;;;;5006905;28;20388;-80
2023/01/06 07:44:03;;;;;;;;;;;;;;;;;;5010599;28;19917;-80
2023/01/06 07:46:50;;;;;;;;;;;;;;;;;;5010503;28;19910;-81
2023/01/06 07:49:36;;;;;;;;;;;;;;;;;;5007772;28;19929;-82
2023/01/06 07:52:23;;;;;;;;;;;;;;;;;;5008359;28;19926;-81
2023/01/06 07:55:09;;;;;;;;;;;;;;;;;;5011306;28;19917;-82
2023/01/06 07:57:57;;;;;;;;;;;;;;;;;;5007390;28;20308;-82
2023/01/06 08:00:43;;;;;;;;;;;;;;;;;;5012323;28;19913;-83
2023/01/06 08:03:30;;;;;;;;;;;;;;;;;;5001427;28;19941;-84
2023/01/06 08:06:16;;;;;;;;;;;;;;;;;;5000699;28;19914;-82
2023/01/06 08:09:03;;;;;;;;;;;;;;;;;;4998301;28;19918;-81
2023/01/06 08:11:49;;;;;;;;;;;;;;;;;;5008440;28;19914;-82
2023/01/06 08:14:36;;;;;;;;;;;;;;;;;;5001533;28;19917;-83
2023/01/06 08:17:22;;;;;;;;;;;;;;;;;;5005217;28;20646;-84
2023/01/06 08:20:09;;;;;;;;;;;;;;;;;;5008518;28;19920;-80
2023/01/06 08:22:55;;;;;;;;;;;;;;;;;;5005508;28;19933;-79
2023/01/06 08:25:42;;;;;;;;;;;;;;;;;;5006224;28;19936;-83
2023/01/06 08:28:28;;;;;;;;;;;;;;;;;;5005630;28;19917;-81
2023/01/06 08:31:15;;;;;;;;;;;;;;;;;;5001635;28;19941;-81
2023/01/06 08:34:01;;;;;;;;;;;;;;;;;;5000540;28;19918;-82
2023/01/06 08:36:48;;;;;;;;;;;;;;;;;;4996363;28;19946;-82
2023/01/06 08:39:34;;;;;;;;;;;;;;;;;;5004517;28;19917;-82
2023/01/06 08:42:21;;;;;;;;;;;;;;;;;;5006145;28;19933;-83
2023/01/06 08:45:07;;;;;;;;;;;;;;;;;;4990945;28;19920;-81
2023/01/06 08:47:54;;;;;;;;;;;;;;;;;;5000861;28;19923;-75
2023/01/06 08:50:40;;;;;;;;;;;;;;;;;;4986732;28;20362;-80
2023/01/06 08:53:27;;;;;;;;;;;;;;;;;;5001652;28;19929;-77
2023/01/06 08:56:13;;;;;;;;;;;;;;;;;;4998597;28;19921;-76
2023/01/06 08:59:00;;;;;;;;;;;;;;;;;;4999343;28;19918;-77
2023/01/06 09:01:46;;;;;;;;;;;;;;;;;;4999553;28;19932;-77
2023/01/06 09:04:33;;;;;;;;;;;;;;;;;;4996382;28;19928;-76
2023/01/06 09:07:19;;;;;;;;;;;;;;;;;;5009769;28;20392;-77
2023/01/06 09:10:06;;;;;;;;;;;;;;;;;;5002755;28;19936;-78
2023/01/06 09:12:52;;;;;;;;;;;;;;;;;;5005887;28;19913;-77
2023/01/06 09:15:39;;;;;;;;;;;;;;;;;;5006074;28;19916;-76
2023/01/06 09:18:26;;;;;;;;;;;;;;;;;;5006642;28;19925;-76
2023/01/06 09:21:12;;;;;;;;;;;;;;;;;;5004011;28;19928;-76
2023/01/06 09:23:59;;;;;;;;;;;;;;;;;;5007479;28;19997;-76
2023/01/06 09:26:45;;;;;;;;;;;;;;;;;;4995435;28;19931;-77
2023/01/06 09:29:32;;;;;;;;;;;;;;;;;;5003257;28;19914;-77
2023/01/06 09:32:18;;;;;;;;;;;;;;;;;;5005701;28;20004;-76
2023/01/06 09:35:05;;;;;;;;;;;;;;;;;;5017080;28;19923;-80
2023/01/06 09:37:51;;;;;;;;;;;;;;;;;;5007566;28;19913;-82
2023/01/06 09:40:38;;;;;;;;;;;;;;;;;;5000574;28;19985;-82
2023/01/06 09:43:24;;;;;;;;;;;;;;;;;;5004214;28;19928;-80
2023/01/06 09:46:11;;;;;;;;;;;;;;;;;;5003698;28;20286;-79
2023/01/06 09:48:57;;;;;;;;;;;;;;;;;;5008517;28;19920;-81
2023/01/06 09:51:44;;;;;;;;;;;;;;;;;;5006916;28;19932;-82
2023/01/06 09:54:30;;;;;;;;;;;;;;;;;;4999698;28;19909;-80
2023/01/06 09:57:17;;;;;;;;;;;;;;;;;;5008009;28;19913;-82
2023/01/06 10:00:03;;;;;;;;;;;;;;;;;;5006225;28;19924;-83
2023/01/06 10:02:49;;;;;;;;;;;;;;;;;;5002933;28;20307;-84
2023/01/06 10:05:36;;;;;;;;;;;;;;;;;;5010737;28;20465;-84
2023/01/06 10:08:22;;;;;;;;;;;;;;;;;;5006801;28;19917;-82
2023/01/06 10:11:09;;;;;;;;;;;;;;;;;;5005573;28;19925;-81
2023/01/06 10:13:56;;;;;;;;;;;;;;;;;;5004628;28;19914;-77
2023/01/06 10:16:42;;;;;;;;;;;;;;;;;;5006504;28;19919;-82
2023/01/06 10:19:28;;;;;;;;;;;;;;;;;;5001178;28;19917;-77
2023/01/06 10:22:15;;;;;;;;;;;;;;;;;;5009311;28;19933;-77
2023/01/06 10:25:01;;;;;;;;;;;;;;;;;;5009117;28;19920;-78
2023/01/06 10:27:48;;;;;;;;;;;;;;;;;;5005850;28;19917;-76
2023/01/06 10:30:34;;;;;;;;;;;;;;;;;;5003638;28;19920;-78
2023/01/06 10:33:21;;;;;;;;;;;;;;;;;;5007462;28;19921;-77
2023/01/06 10:36:07;;;;;;;;;;;;;;;;;;5004959;28;19923;-78
2023/01/06 10:38:54;;;;;;;;;;;;;;;;;;5001932;28;20012;-77
2023/01/06 10:41:40;;;;;;;;;;;;;;;;;;5001829;28;19925;-77
2023/01/06 10:44:27;;;;;;;;;;;;;;;;;;5004531;28;19929;-76
2023/01/06 10:47:13;;;;;;;;;;;;;;;;;;5009979;28;20365;-77
2023/01/06 10:50:00;;;;;;;;;;;;;;;;;;5004864;28;19913;-77
2023/01/06 10:52:46;;;;;;;;;;;;;;;;;;5006403;28;19929;-78
2023/01/06 10:55:35;;;;;;;;;;;;;;;;;;5009114;28;21629;-78
2023/01/06 10:58:21;;;;;;;;;;;;;;;;;;5010429;28;19920;-77
2023/01/06 11:01:08;;;;;;;;;;;;;;;;;;5006939;28;19917;-78
2023/01/06 11:03:54;;;;;;;;;;;;;;;;;;5004192;28;19926;-76
2023/01/06 11:06:41;;;;;;;;;;;;;;;;;;5002080;28;19921;-76
2023/01/06 11:09:27;;;;;;;;;;;;;;;;;;5006767;28;19921;-77
2023/01/06 11:12:14;;;;;;;;;;;;;;;;;;5012099;28;19920;-76
2023/01/06 11:15:00;;;;;;;;;;;;;;;;;;5009398;28;20406;-77
2023/01/06 11:17:47;;;;;;;;;;;;;;;;;;5006347;28;19921;-76
2023/01/06 11:20:34;;;;;;;;;;;;;;;;;;5008166;28;19914;-77
2023/01/06 11:23:20;;;;;;;;;;;;;;;;;;5009650;28;20660;-77
2023/01/06 11:26:09;;;;;;;;;;;;;;;;;;5010384;28;19921;-78
2023/01/06 11:28:55;;;;;;;;;;;;;;;;;;5008542;28;19914;-77
2023/01/06 11:31:42;;;;;;;;;;;;;;;;;;5002422;28;20301;-78
2023/01/06 11:34:28;;;;;;;;;;;;;;;;;;5014489;28;19914;-78
2023/01/06 11:37:15;;;;;;;;;;;;;;;;;;5008054;28;20004;-78
2023/01/06 11:40:01;;;;;;;;;;;;;;;;;;5009461;28;19937;-77
2023/01/06 11:42:47;;;;;;;;;;;;;;;;;;5012531;28;19917;-77
2023/01/06 11:45:34;;;;;;;;;;;;;;;;;;5009747;28;19992;-78
2023/01/06 11:48:20;;;;;;;;;;;;;;;;;;5014002;28;20545;-77
2023/01/06 11:51:07;;;;;;;;;;;;;;;;;;5009413;28;19925;-81
2023/01/06 11:53:55;;;;;;;;;;;;;;;;;;5010664;28;19910;-81
2023/01/06 11:56:42;;;;;;;;;;;;;;;;;;5011169;28;19913;-82
2023/01/06 11:59:28;;;;;;;;;;;;;;;;;;5016672;28;19909;-81
2023/01/06 12:02:15;;;;;;;;;;;;;;;;;;5011326;28;20391;-83
2023/01/06 12:05:01;;;;;;;;;;;;;;;;;;5009839;28;19918;-84
2023/01/06 12:07:48;;;;;;;;;;;;;;;;;;5009863;28;19913;-85
2023/01/06 12:10:34;;;;;;;;;;;;;;;;;;5000999;28;20443;-84
2023/01/06 12:13:21;;;;;;;;;;;;;;;;;;5017794;28;19913;-82
2023/01/06 12:16:07;;;;;;;;;;;;;;;;;;5008869;28;19918;-81
2023/01/06 12:18:54;;;;;;;;;;;;;;;;;;5008299;28;19914;-82
2023/01/06 12:21:40;;;;;;;;;;;;;;;;;;5006474;28;19913;-82
2023/01/06 12:24:27;;;;;;;;;;;;;;;;;;5013654;28;19925;-81
2023/01/06 12:27:13;;;;;;;;;;;;;;;;;;5006829;28;19910;-81
2023/01/06 12:30:00;;;;;;;;;;;;;;;;;;5001334;28;19921;-81
2023/01/06 12:32:48;;;;;;;;;;;;;;;;;;5009469;28;19948;-82
2023/01/06 12:35:34;;;;;;;;;;;;;;;;;;5004240;28;19997;-85
2023/01/06 12:38:21;;;;;;;;;;;;;;;;;;5007781;28;19939;-82
2023/01/06 12:41:08;;;;;;;;;;;;;;;;;;5007076;28;19917;-81
2023/01/06 12:43:54;;;;;;;;;;;;;;;;;;5001397;28;19936;-82
2023/01/06 12:46:41;;;;;;;;;;;;;;;;;;5005340;28;19910;-83
2023/01/06 12:49:28;;;;;;;;;;;;;;;;;;5015761;28;20304;-84
2023/01/06 12:52:14;;;;;;;;;;;;;;;;;;5009198;28;19932;-84
2023/01/06 12:55:01;;;;;;;;;;;;;;;;;;5009495;28;19917;-82
2023/01/06 12:57:47;;;;;;;;;;;;;;;;;;4997902;28;20576;-81
2023/01/06 13:00:33;;;;;;;;;;;;;;;;;;5003416;28;19923;-82
2023/01/06 13:03:20;;;;;;;;;;;;;;;;;;5005864;28;20266;-83
2023/01/06 13:06:06;;;;;;;;;;;;;;;;;;5009733;28;19917;-83
2023/01/06 13:08:53;;;;;;;;;;;;;;;;;;5010627;28;19913;-82
2023/01/06 13:11:39;;;;;;;;;;;;;;;;;;5009196;28;19936;-82
2023/01/06 13:14:26;;;;;;;;;;;;;;;;;;4994895;28;19936;-82
2023/01/06 13:17:12;;;;;;;;;;;;;;;;;;5001764;28;19919;-83
2023/01/06 13:20:04;;;;;;;;;;;;;;;;;;5008461;28;19917;-83
2023/01/06 13:22:51;;;;;;;;;;;;;;;;;;5006698;28;19929;-83
2023/01/06 13:25:38;;;;;;;;;;;;;;;;;;5007739;28;20448;-82
2023/01/06 13:28:24;;;;;;;;;;;;;;;;;;5008601;28;19913;-80
2023/01/06 13:31:11;;;;;;;;;;;;;;;;;;5007222;28;19921;-79
2023/01/06 13:33:57;;;;;;;;;;;;;;;;;;5011029;28;19917;-81
2023/01/06 13:36:44;;;;;;;;;;;;;;;;;;5003242;28;19918;-80
2023/01/06 13:39:30;;;;;;;;;;;;;;;;;;5008615;28;19914;-82
2023/01/06 13:42:17;;;;;;;;;;;;;;;;;;4986794;28;19922;-82
2023/01/06 13:45:03;;;;;;;;;;;;;;;;;;5003138;28;20369;-82
2023/01/06 13:47:50;;;;;;;;;;;;;;;;;;5008280;28;19914;-83
2023/01/06 13:50:36;;;;;;;;;;;;;;;;;;5008725;28;19921;-81
2023/01/06 13:53:23;;;;;;;;;;;;;;;;;;4994060;28;19922;-81
2023/01/06 13:56:09;;;;;;;;;;;;;;;;;;5004263;28;19913;-82
2023/01/06 13:58:56;;;;;;;;;;;;;;;;;;5005103;28;19917;-82
2023/01/06 14:01:42;;;;;;;;;;;;;;;;;;4993338;28;20415;-81
2023/01/06 14:04:29;;;;;;;;;;;;;;;;;;5005451;28;19917;-79
2023/01/06 14:07:15;;;;;;;;;;;;;;;;;;5003511;28;19913;-80
2023/01/06 14:10:02;;;;;;;;;;;;;;;;;;4995077;28;19913;-81
2023/01/06 14:12:48;;;;;;;;;;;;;;;;;;4986593;28;19910;-80
2023/01/06 14:15:35;;;;;;;;;;;;;;;;;;5001443;28;19917;-81
2023/01/06 14:18:21;;;;;;;;;;;;;;;;;;5000142;28;20494;-81
2023/01/06 14:21:08;;;;;;;;;;;;;;;;;;5003600;28;20624;-80
2023/01/06 14:23:54;;;;;;;;;;;;;;;;;;5000573;28;19925;-81
2023/01/06 14:26:41;;;;;;;;;;;;;;;;;;5002595;28;20377;-81
2023/01/06 14:29:27;;;;;;;;;;;;;;;;;;5001455;28;20369;-81
2023/01/06 14:32:14;;;;;;;;;;;;;;;;;;5002536;28;19913;-82
2023/01/06 14:35:00;;;;;;;;;;;;;;;;;;4998056;28;20648;-82
2023/01/06 14:37:49;;;;;;;;;;;;;;;;;;5000370;28;19925;-81
2023/01/06 14:40:35;;;;;;;;;;;;;;;;;;5007916;28;19914;-81
2023/01/06 14:43:22;;;;;;;;;;;;;;;;;;4994960;28;19921;-81
2023/01/06 14:46:10;;;;;;;;;;;;;;;;;;5000888;28;20305;-79
2023/01/06 14:48:57;;;;;;;;;;;;;;;;;;4997153;28;19925;-81
2023/01/06 14:51:44;;;;;;;;;;;;;;;;;;5000975;28;20672;-78
2023/01/06 14:54:30;;;;;;;;;;;;;;;;;;4999142;28;19913;-78
2023/01/06 14:57:17;;;;;;;;;;;;;;;;;;4994816;28;19918;-80
2023/01/06 15:00:05;;;;;;;;;;;;;;;;;;4999586;28;19914;-81
2023/01/06 15:02:52;;;;;;;;;;;;;;;;;;5003697;28;19922;-79
2023/01/06 15:05:38;;;;;;;;;;;;;;;;;;5012775;28;19920;-79
2023/01/06 15:08:25;;;;;;;;;;;;;;;;;;5006895;28;19916;-80
2023/01/06 15:11:11;;;;;;;;;;;;;;;;;;5010467;28;19917;-82
2023/01/06 15:13:58;;;;;;;;;;;;;;;;;;5008710;28;19942;-83
2023/01/06 15:16:44;;;;;;;;;;;;;;;;;;5014843;28;20373;-82
2023/01/06 15:19:31;;;;;;;;;;;;;;;;;;4997375;28;19916;-83
2023/01/06 15:22:17;;;;;;;;;;;;;;;;;;5011016;28;20399;-80
2023/01/06 15:25:04;;;;;;;;;;;;;;;;;;5014631;28;19917;-82
2023/01/06 15:27:54;;;;;;;;;;;;;;;;;;5001206;28;20365;-82
2023/01/06 15:30:40;;;;;;;;;;;;;;;;;;5006610;28;20301;-77
2023/01/06 15:33:26;;;;;;;;;;;;;;;;;;5004696;28;19917;-78
2023/01/06 15:36:13;;;;;;;;;;;;;;;;;;5008863;28;19932;-77
2023/01/06 15:39:00;;;;;;;;;;;;;;;;;;5010604;28;19914;-76
2023/01/06 15:41:46;;;;;;;;;;;;;;;;;;4999539;28;20361;-77
2023/01/06 15:44:33;;;;;;;;;;;;;;;;;;5009088;28;19928;-76
2023/01/06 15:47:19;;;;;;;;;;;;;;;;;;5011660;28;19983;-78
2023/01/06 15:50:06;;;;;;;;;;;;;;;;;;5006934;28;19916;-76
2023/01/06 15:52:52;;;;;;;;;;;;;;;;;;5011171;28;19934;-77
2023/01/06 15:55:41;;;;;;;;;;;;;;;;;;5009734;28;19913;-76
2023/01/06 15:58:29;;;;;;;;;;;;;;;;;;4999273;28;19919;-77
2023/01/06 16:01:15;;;;;;;;;;;;;;;;;;5001960;28;19918;-76
2023/01/06 16:04:02;;;;;;;;;;;;;;;;;;5006785;28;19925;-76
2023/01/06 16:06:48;;;;;;;;;;;;;;;;;;5002635;28;19920;-77
2023/01/06 16:09:36;;;;;;;;;;;;;;;;;;4999238;28;20373;-77
2023/01/06 16:12:23;;;;;;;;;;;;;;;;;;5005520;28;20577;-76
2023/01/06 16:15:09;;;;;;;;;;;;;;;;;;5001911;28;20251;-77
2023/01/06 16:17:56;;;;;;;;;;;;;;;;;;5002689;28;20253;-76
2023/01/06 16:20:42;;;;;;;;;;;;;;;;;;5005393;28;19918;-76
2023/01/06 16:23:29;;;;;;;;;;;;;;;;;;5006497;28;20377;-75
2023/01/06 16:26:15;;;;;;;;;;;;;;;;;;5004986;28;19922;-75
2023/01/06 16:29:02;;;;;;;;;;;;;;;;;;5012765;28;19992;-74
2023/01/06 16:31:48;;;;;;;;;;;;;;;;;;5006473;28;19921;-75
2023/01/06 16:34:35;;;;;;;;;;;;;;;;;;5004865;28;20361;-76
2023/01/06 16:37:21;;;;;;;;;;;;;;;;;;5010785;28;19924;-75
2023/01/06 16:40:08;;;;;;;;;;;;;;;;;;5004350;28;19918;-76
2023/01/06 16:42:54;;;;;;;;;;;;;;;;;;5003100;28;19921;-77
2023/01/06 16:45:43;;;;;;;;;;;;;;;;;;5003497;28;19919;-76
2023/01/06 16:48:29;;;;;;;;;;;;;;;;;;5005258;28;19921;-74
2023/01/06 16:51:16;;;;;;;;;;;;;;;;;;4994326;28;19925;-75
2023/01/06 16:54:02;;;;;;;;;;;;;;;;;;5002691;28;20391;-76
2023/01/06 16:56:50;;;;;;;;;;;;;;;;;;5001600;28;19914;-75
2023/01/06 16:59:37;;;;;;;;;;;;;;;;;;5003363;28;20467;-75
2023/01/06 17:02:23;;;;;;;;;;;;;;;;;;5005357;28;19921;-75
2023/01/06 17:05:10;;;;;;;;;;;;;;;;;;4991905;28;19921;-75
2023/01/06 17:07:56;;;;;;;;;;;;;;;;;;5007500;28;19922;-75
2023/01/06 17:10:43;;;;;;;;;;;;;;;;;;4997448;28;19914;-75
2023/01/06 17:13:37;;;;;;;;;;;;;;;;;;5013988;28;19936;-75
2023/01/06 17:16:29;;;;;;;;;;;;;;;;;;5000143;28;19914;-75
2023/01/06 17:19:16;;;;;;;;;;;;;;;;;;5005411;28;19917;-76
2023/01/06 17:22:02;;;;;;;;;;;;;;;;;;5008621;28;19920;-75
2023/01/06 17:24:49;;;;;;;;;;;;;;;;;;5013845;28;19921;-76
2023/01/06 17:27:35;;;;;;;;;;;;;;;;;;5005966;28;19956;-76
2023/01/06 17:30:22;;;;;;;;;;;;;;;;;;5001822;28;19918;-74
2023/01/06 17:33:10;;;;;;;;;;;;;;;;;;5004869;28;19921;-75
2023/01/06 17:35:58;;;;;;;;;;;;;;;;;;5001496;28;20372;-74
2023/01/06 17:38:45;;;;;;;;;;;;;;;;;;5002635;28;20393;-75
2023/01/06 17:41:31;;;;;;;;;;;;;;;;;;5008084;28;19956;-75
2023/01/06 17:44:18;;;;;;;;;;;;;;;;;;5003992;28;19965;-75
2023/01/06 17:47:04;;;;;;;;;;;;;;;;;;5003463;28;19929;-75
2023/01/06 17:49:50;;;;;;;;;;;;;;;;;;5004918;28;19920;-74
2023/01/06 17:52:37;;;;;;;;;;;;;;;;;;4995179;28;19933;-75
2023/01/06 17:55:41;;;;;;;;;;;;;;;;;;5007435;28;19921;-75
2023/01/06 17:58:28;;;;;;;;;;;;;;;;;;4993555;28;19960;-74
2023/01/06 18:01:15;;;;;;;;;;;;;;;;;;5006152;28;20377;-79
2023/01/06 18:04:07;;;;;;;;;;;;;;;;;;5006246;28;19937;-80
2023/01/06 18:06:54;;;;;;;;;;;;;;;;;;5002349;28;19921;-73
2023/01/06 18:09:40;;;;;;;;;;;;;;;;;;5002690;28;19913;-74
2023/01/06 18:12:27;;;;;;;;;;;;;;;;;;5004358;28;19924;-74
2023/01/06 18:15:13;;;;;;;;;;;;;;;;;;5000766;28;19909;-75
2023/01/06 18:18:00;;;;;;;;;;;;;;;;;;4998884;28;20608;-79
2023/01/06 18:20:46;;;;;;;;;;;;;;;;;;5000245;28;19925;-78
2023/01/06 18:23:33;;;;;;;;;;;;;;;;;;4995639;28;19936;-77
2023/01/06 18:26:19;;;;;;;;;;;;;;;;;;4994248;28;19917;-77
2023/01/06 18:29:06;;;;;;;;;;;;;;;;;;4997048;28;20675;-80
2023/01/06 18:31:52;;;;;;;;;;;;;;;;;;4996508;28;19918;-75
2023/01/06 18:34:39;;;;;;;;;;;;;;;;;;4999089;28;19944;-76
2023/01/06 18:37:25;;;;;;;;;;;;;;;;;;5002411;28;19924;-77
2023/01/06 18:40:12;;;;;;;;;;;;;;;;;;4997638;28;19932;-78
2023/01/06 18:42:58;;;;;;;;;;;;;;;;;;5004672;28;19933;-78
2023/01/06 18:45:45;;;;;;;;;;;;;;;;;;4993650;28;19923;-77
2023/01/06 18:48:31;;;;;;;;;;;;;;;;;;5005782;28;20212;-75
2023/01/06 18:51:18;;;;;;;;;;;;;;;;;;5005075;28;19932;-80
2023/01/06 18:54:04;;;;;;;;;;;;;;;;;;5011978;28;19917;-79
2023/01/06 18:56:51;;;;;;;;;;;;;;;;;;5015945;28;19921;-83
2023/01/06 18:59:37;;;;;;;;;;;;;;;;;;5011298;28;19918;-77
2023/01/06 19:02:24;;;;;;;;;;;;;;;;;;5005669;28;19937;-76
2023/01/06 19:05:10;;;;;;;;;;;;;;;;;;5014899;28;19922;-76